Station: EBSP - 20/07/2024 07:21Z (il y a 15 minutes)
EBSP 200720Z AUTO 16007KT CAVOK 23/15 Q1013
Vent du 160º - 7 kt
Visibilité > 10 km et plafond haut ou pas de nuages significatifs
Température: +23ºC - Point de rosée: +15ºC - QNH: 1013 hPa